Time;durP1;ratioP1;P1;durP2;ratioP2;P2;SDS_P1;SDS_P2;PMS_P1;PMS_P2;Temp;Humidity;BMP_temperature;BMP_pressure;BME280_temperature;BME280_humidity;BME280_pressure;Samples;Min_cycle;Max_cycle;Signal;HPM_P1;HPM_P2
2023/03/24 00:00:20;;;;;;;8.20;3.72;;;;;;;10.13;100.00;98101.41;5097701;28;20024;-60
2023/03/24 00:02:47;;;;;;;7.82;3.72;;;;;;;10.23;100.00;98097.13;5095912;28;20643;-60
2023/03/24 00:05:21;;;;;;;7.40;3.70;;;;;;;10.20;100.00;98100.31;5091752;28;20173;-60
2023/03/24 00:07:46;;;;;;;7.72;3.85;;;;;;;10.16;100.00;98100.06;5091328;28;20047;-59
2023/03/24 00:10:14;;;;;;;6.35;4.00;;;;;;;10.13;100.00;98092.56;5098425;28;20028;-60
2023/03/24 00:12:41;;;;;;;8.73;4.60;;;;;;;10.05;100.00;98088.53;5101697;28;20092;-60
2023/03/24 00:15:09;;;;;;;7.45;4.28;;;;;;;10.00;100.00;98093.09;5095262;28;20032;-60
2023/03/24 00:17:35;;;;;;;10.20;4.30;;;;;;;9.87;100.00;98094.41;5084915;28;20023;-60
2023/03/24 00:20:14;;;;;;;7.18;4.05;;;;;;;9.84;100.00;98093.06;5102360;28;20031;-60
2023/03/24 00:22:47;;;;;;;10.23;4.50;;;;;;;9.82;100.00;98083.69;5104375;28;20062;-60
2023/03/24 00:25:12;;;;;;;7.07;4.20;;;;;;;9.78;100.00;98082.59;5099630;28;20378;-60
2023/03/24 00:27:38;;;;;;;9.82;4.03;;;;;;;9.78;100.00;98083.41;5096184;28;20081;-60
2023/03/24 00:30:08;;;;;;;9.50;4.65;;;;;;;9.80;100.00;98077.81;5094744;28;20027;-61
2023/03/24 00:32:35;;;;;;;9.32;4.15;;;;;;;9.75;100.00;98072.44;5093533;28;20089;-58
2023/03/24 00:35:02;;;;;;;8.15;4.20;;;;;;;9.75;100.00;98072.44;5098738;28;20766;-59
2023/03/24 00:37:27;;;;;;;8.40;4.45;;;;;;;9.76;100.00;98066.00;5098043;28;20038;-58
2023/03/24 00:39:53;;;;;;;8.73;4.47;;;;;;;9.74;100.00;98065.50;5097133;28;20032;-59
2023/03/24 00:42:18;;;;;;;8.57;4.40;;;;;;;9.67;100.00;98055.84;5099381;28;20429;-58
2023/03/24 00:44:44;;;;;;;8.45;4.50;;;;;;;9.60;100.00;98057.16;5098941;28;20047;-59
2023/03/24 00:47:10;;;;;;;9.05;4.32;;;;;;;9.57;100.00;98060.38;5099131;28;20024;-59
2023/03/24 00:49:41;;;;;;;12.50;5.93;;;;;;;9.54;100.00;98059.03;5097855;28;20024;-60
2023/03/24 00:52:11;;;;;;;7.10;4.20;;;;;;;9.53;100.00;98053.94;5094666;28;20160;-61
2023/03/24 00:54:37;;;;;;;10.52;4.60;;;;;;;9.45;100.00;98047.22;5095577;28;20054;-60
2023/03/24 00:57:03;;;;;;;8.50;4.50;;;;;;;9.50;100.00;98041.91;5102635;28;20088;-60
2023/03/24 00:59:29;;;;;;;7.70;4.90;;;;;;;9.54;100.00;98045.66;5096468;28;20016;-60
2023/03/24 01:01:57;;;;;;;9.02;4.70;;;;;;;9.57;100.00;98041.66;5091194;28;20036;-60
2023/03/24 01:04:26;;;;;;;12.48;5.50;;;;;;;9.58;100.00;98046.72;5096330;28;20079;-61
2023/03/24 01:06:53;;;;;;;9.23;5.05;;;;;;;9.55;100.00;98044.56;5096222;28;20050;-60
2023/03/24 01:09:20;;;;;;;9.02;4.97;;;;;;;9.56;100.00;98043.53;5100747;28;20063;-60
2023/03/24 01:11:48;;;;;;;13.50;5.45;;;;;;;9.48;100.00;98036.81;5103266;28;20031;-59
2023/03/24 01:14:13;;;;;;;12.15;5.18;;;;;;;9.43;100.00;98039.47;5096597;28;20428;-59
2023/03/24 01:16:39;;;;;;;12.60;5.93;;;;;;;9.49;100.00;98033.06;5099009;28;20032;-58
2023/03/24 01:19:05;;;;;;;13.50;5.43;;;;;;;9.54;100.00;98036.84;5098486;28;20428;-59
2023/03/24 01:21:31;;;;;;;18.65;6.63;;;;;;;9.61;100.00;98038.19;5091920;28;20023;-62
2023/03/24 01:23:56;;;;;;;12.90;7.28;;;;;;;9.61;100.00;98029.34;5103735;28;20106;-59
2023/03/24 01:26:22;;;;;;;13.52;7.03;;;;;;;9.62;100.00;98021.06;5099990;28;20019;-60
2023/03/24 01:28:47;;;;;;;13.40;7.43;;;;;;;9.70;100.00;98012.50;5094574;28;20024;-61
2023/03/24 01:31:13;;;;;;;16.58;8.75;;;;;;;9.76;100.00;98015.16;5099619;28;20371;-60
2023/03/24 01:33:38;;;;;;;21.98;10.10;;;;;;;9.77;100.00;98011.44;5093688;28;20305;-60
2023/03/24 01:36:04;;;;;;;16.63;8.93;;;;;;;9.80;100.00;98011.69;5093877;28;20032;-60
2023/03/24 01:38:30;;;;;;;19.02;9.77;;;;;;;9.77;100.00;98006.09;5095742;28;20027;-59
2023/03/24 01:40:55;;;;;;;22.27;10.25;;;;;;;9.76;100.00;98004.47;5094388;28;20093;-60
2023/03/24 01:43:31;;;;;;;23.02;11.20;;;;;;;9.68;100.00;97989.75;5096952;28;20027;-61
2023/03/24 01:46:01;;;;;;;23.80;11.35;;;;;;;9.64;100.00;97984.13;5093235;28;20034;-60
2023/03/24 01:48:49;;;;;;;22.95;12.13;;;;;;;9.66;100.00;97982.00;5097014;28;20023;-60
2023/03/24 01:51:18;;;;;;;21.38;11.85;;;;;;;9.66;100.00;97965.97;5100323;28;20051;-60
2023/03/24 01:53:51;;;;;;;21.08;13.82;;;;;;;9.69;100.00;97970.78;5100253;28;20537;-60
2023/03/24 01:56:17;;;;;;;22.45;12.90;;;;;;;9.59;100.00;97967.28;5096251;28;20486;-60
2023/03/24 01:58:46;;;;;;;21.23;13.27;;;;;;;9.60;100.00;97967.00;5099412;28;20027;-58
2023/03/24 02:01:12;;;;;;;25.17;14.48;;;;;;;9.55;100.00;97956.31;5097600;27;20024;-59
2023/03/24 02:03:38;;;;;;;22.27;13.70;;;;;;;9.53;100.00;97953.09;5101651;28;20023;-59
2023/03/24 02:06:04;;;;;;;25.45;13.52;;;;;;;9.55;100.00;97942.94;5090507;28;20039;-59
2023/03/24 02:08:41;;;;;;;25.90;14.85;;;;;;;9.55;100.00;97940.25;5095441;28;20028;-62
2023/03/24 02:11:06;;;;;;;23.42;14.48;;;;;;;9.56;100.00;97931.19;5089110;28;20097;-61
2023/03/24 02:13:32;;;;;;;26.83;15.55;;;;;;;9.60;100.00;97929.56;5091569;28;20478;-60
2023/03/24 02:16:15;;;;;;;27.83;15.20;;;;;;;9.63;100.00;97915.63;5098183;28;20644;-60
2023/03/24 02:19:04;;;;;;;25.52;14.82;;;;;;;9.63;100.00;97912.97;5097856;28;20039;-61
2023/03/24 02:21:51;;;;;;;23.75;14.50;;;;;;;9.63;100.00;97902.25;5086549;28;20035;-60
2023/03/24 02:24:54;;;;;;;24.95;14.05;;;;;;;9.70;100.00;97902.81;5098128;28;20111;-61
2023/03/24 02:27:19;;;;;;;23.90;13.35;;;;;;;10.02;100.00;97891.00;5096514;28;20035;-60
2023/03/24 02:30:22;;;;;;;20.33;10.93;;;;;;;10.23;100.00;97885.56;5098449;28;20036;-60
2023/03/24 02:33:20;;;;;;;20.15;10.55;;;;;;;10.29;100.00;97884.53;5094747;28;20032;-60
2023/03/24 02:36:27;;;;;;;18.27;11.48;;;;;;;10.15;100.00;97893.09;5090576;28;20051;-60
2023/03/24 02:39:11;;;;;;;18.38;11.00;;;;;;;10.26;100.00;97893.06;5078125;28;20040;-60
2023/03/24 02:41:57;;;;;;;17.75;10.80;;;;;;;10.15;100.00;97897.66;5096373;28;20062;-60
2023/03/24 02:44:31;;;;;;;20.30;11.02;;;;;;;10.18;100.00;97894.41;5097491;28;20034;-59
2023/03/24 02:47:15;;;;;;;20.23;10.63;;;;;;;10.17;100.00;97884.00;5092660;28;20122;-60
2023/03/24 02:50:07;;;;;;;18.15;10.85;;;;;;;10.15;100.00;97885.06;5082250;28;20015;-59
2023/03/24 02:52:36;;;;;;;22.27;11.38;;;;;;;10.06;100.00;97876.00;5098064;28;20235;-60
2023/03/24 02:55:32;;;;;;;20.60;11.20;;;;;;;10.06;100.00;97870.66;5095244;28;20031;-60
2023/03/24 02:58:02;;;;;;;17.05;10.40;;;;;;;10.00;100.00;97879.75;5092729;28;20024;-60
2023/03/24 03:00:33;;;;;;;18.37;10.83;;;;;;;10.04;100.00;97875.47;5102424;28;20237;-59
2023/03/24 03:03:01;;;;;;;17.25;10.95;;;;;;;10.05;100.00;97879.72;5090697;28;20272;-60
2023/03/24 03:05:31;;;;;;;20.75;10.90;;;;;;;10.01;100.00;97884.03;5087158;28;20384;-60
2023/03/24 03:07:57;;;;;;;20.53;10.93;;;;;;;10.08;100.00;97883.75;5077596;28;20474;-60
2023/03/24 03:10:24;;;;;;;23.20;12.10;;;;;;;9.95;100.00;97879.75;5094602;28;20367;-60
2023/03/24 03:12:52;;;;;;;21.42;11.63;;;;;;;9.98;100.00;97889.13;5095329;28;20032;-60
2023/03/24 03:15:23;;;;;;;20.77;11.35;;;;;;;10.11;100.00;97873.31;5097122;28;20024;-60
2023/03/24 03:17:52;;;;;;;20.60;12.13;;;;;;;10.12;100.00;97884.81;5091290;28;20044;-59
2023/03/24 03:20:23;;;;;;;20.67;11.93;;;;;;;10.20;100.00;97880.78;5097163;28;20481;-59
2023/03/24 03:22:51;;;;;;;22.65;11.10;;;;;;;10.31;100.00;97882.38;5096710;28;20032;-60
2023/03/24 03:25:23;;;;;;;20.52;12.10;;;;;;;10.30;100.00;97875.41;5091361;28;20066;-59
2023/03/24 03:27:48;;;;;;;22.70;11.85;;;;;;;10.29;100.00;97868.47;5071966;28;20263;-60
2023/03/24 03:30:21;;;;;;;35.83;13.23;;;;;;;10.41;100.00;97866.28;5081037;28;20016;-60
2023/03/24 03:32:53;;;;;;;18.08;10.70;;;;;;;10.64;100.00;97882.78;5098560;28;20040;-60
2023/03/24 03:35:24;;;;;;;23.23;11.30;;;;;;;10.67;100.00;97869.63;5098252;28;20031;-60
2023/03/24 03:37:56;;;;;;;18.40;9.70;;;;;;;10.81;100.00;97869.81;5093237;28;20016;-60
2023/03/24 03:40:24;;;;;;;22.30;12.30;;;;;;;10.83;100.00;97873.00;5101349;28;20132;-59
2023/03/24 03:42:50;;;;;;;23.75;11.50;;;;;;;10.81;100.00;97864.47;5090398;28;20089;-59
2023/03/24 03:45:15;;;;;;;22.00;12.57;;;;;;;10.87;100.00;97852.63;5093580;28;20039;-60
2023/03/24 03:47:41;;;;;;;23.10;12.32;;;;;;;10.84;100.00;97845.16;5091835;28;20432;-60
2023/03/24 03:50:07;;;;;;;22.45;12.75;;;;;;;10.84;100.00;97845.16;5084544;28;20024;-59
2023/03/24 03:52:33;;;;;;;20.83;11.55;;;;;;;10.95;100.00;97838.63;5099003;28;20028;-60
2023/03/24 03:54:59;;;;;;;23.70;12.77;;;;;;;10.98;100.00;97830.03;5101819;28;20067;-60
2023/03/24 03:57:24;;;;;;;20.30;10.93;;;;;;;11.07;100.00;97826.75;5096630;28;20054;-60
2023/03/24 03:59:50;;;;;;;23.88;13.20;;;;;;;11.12;100.00;97848.19;5102191;28;20028;-59
2023/03/24 04:02:23;;;;;;;22.10;11.48;;;;;;;11.11;100.00;97842.03;5104254;28;20035;-59
2023/03/24 04:04:57;;;;;;;21.80;10.70;;;;;;;11.08;100.00;97841.75;5091761;28;20107;-60
2023/03/24 04:07:29;;;;;;;19.63;11.38;;;;;;;11.10;100.00;97845.75;5097384;28;20032;-60
2023/03/24 04:10:11;;;;;;;19.50;11.13;;;;;;;11.13;100.00;97839.03;5100509;28;20114;-61
2023/03/24 04:12:42;;;;;;;19.50;11.70;;;;;;;11.10;100.00;97844.97;5093581;28;20051;-60
2023/03/24 04:15:18;;;;;;;16.95;10.00;;;;;;;11.15;100.00;97831.53;5096478;28;20016;-60
2023/03/24 04:18:08;;;;;;;17.92;11.25;;;;;;;11.14;100.00;97857.53;5082984;28;20023;-60
2023/03/24 04:20:56;;;;;;;17.73;10.57;;;;;;;11.12;100.00;97864.25;5093515;28;20071;-60
2023/03/24 04:23:38;;;;;;;17.30;9.63;;;;;;;11.24;100.00;97856.66;5103569;28;20161;-60
2023/03/24 04:26:14;;;;;;;19.33;10.85;;;;;;;11.21;100.00;97857.22;5096682;28;20363;-60
2023/03/24 04:28:57;;;;;;;20.17;10.98;;;;;;;11.28;100.00;97862.25;5096628;28;20084;-60
2023/03/24 04:31:25;;;;;;;19.20;10.10;;;;;;;11.21;100.00;97867.97;5096907;27;20036;-60
2023/03/24 04:33:57;;;;;;;20.45;11.10;;;;;;;11.26;100.00;97859.88;5099760;28;20031;-58
2023/03/24 04:36:41;;;;;;;16.60;9.63;;;;;;;11.31;100.00;97872.44;5097588;28;20069;-61
2023/03/24 04:39:08;;;;;;;21.08;9.77;;;;;;;11.37;100.00;97872.13;5089334;28;20609;-59
2023/03/24 04:41:33;;;;;;;17.10;9.15;;;;;;;11.37;100.00;97872.13;5097660;28;20050;-60
2023/03/24 04:43:59;;;;;;;15.38;9.23;;;;;;;11.37;100.00;97876.69;5095872;28;20082;-60
2023/03/24 04:46:24;;;;;;;14.50;8.80;;;;;;;11.47;100.00;97875.81;5103127;28;20072;-60
2023/03/24 04:48:50;;;;;;;16.70;9.25;;;;;;;11.43;100.00;97876.38;5084412;28;20378;-60
2023/03/24 04:51:17;;;;;;;12.07;7.28;;;;;;;11.51;100.00;97876.84;5089332;28;20934;-60
2023/03/24 04:53:43;;;;;;;12.02;7.63;;;;;;;11.46;100.00;97869.66;5093314;28;20039;-59
2023/03/24 04:56:26;;;;;;;13.07;7.80;;;;;;;11.42;100.00;97869.38;5098719;28;20393;-59
2023/03/24 04:58:51;;;;;;;12.75;7.18;;;;;;;11.40;100.00;97882.28;5101674;28;20024;-59
2023/03/24 05:01:20;;;;;;;13.27;7.97;;;;;;;11.37;100.00;97890.09;5096270;28;20032;-61
2023/03/24 05:03:46;;;;;;;12.95;7.72;;;;;;;11.32;100.00;97898.19;5092569;28;20394;-60
2023/03/24 05:06:11;;;;;;;12.18;7.85;;;;;;;11.30;100.00;97913.75;5098559;28;20024;-59
2023/03/24 05:08:37;;;;;;;14.90;7.75;;;;;;;11.32;100.00;97916.97;5095071;28;20359;-59
2023/03/24 05:11:02;;;;;;;13.70;7.40;;;;;;;11.38;100.00;97913.97;5094465;28;20039;-59
2023/03/24 05:13:28;;;;;;;12.88;7.03;;;;;;;11.26;100.00;97916.19;5095752;28;20040;-59
2023/03/24 05:15:53;;;;;;;11.25;6.88;;;;;;;11.23;100.00;97924.78;5094333;28;20439;-61
2023/03/24 05:18:19;;;;;;;14.25;7.18;;;;;;;11.38;100.00;97915.81;5097182;28;20092;-61
2023/03/24 05:20:44;;;;;;;12.95;7.25;;;;;;;11.28;100.00;97921.25;5098168;28;20435;-61
2023/03/24 05:23:10;;;;;;;14.73;7.30;;;;;;;11.21;100.00;97919.72;5098206;28;20019;-60
2023/03/24 05:25:35;;;;;;;11.30;6.53;;;;;;;11.22;100.00;97933.91;5101484;28;20247;-61
2023/03/24 05:28:01;;;;;;;11.50;7.18;;;;;;;11.17;100.00;97920.53;5094987;28;20394;-60
2023/03/24 05:30:26;;;;;;;12.80;6.68;;;;;;;11.19;100.00;97913.81;5096724;28;20038;-60
2023/03/24 05:32:52;;;;;;;15.30;6.53;;;;;;;11.13;100.00;97909.59;5088731;28;20036;-60
2023/03/24 05:35:17;;;;;;;10.50;6.93;;;;;;;10.99;100.00;97912.06;5097975;28;20032;-60
2023/03/24 05:37:43;;;;;;;13.20;7.03;;;;;;;11.00;100.00;97923.59;5099884;28;20031;-60
2023/03/24 05:40:09;;;;;;;11.30;6.75;;;;;;;10.96;100.00;97920.66;5100675;28;20171;-60
2023/03/24 05:42:34;;;;;;;12.90;6.45;;;;;;;11.01;100.00;97926.00;5095514;28;20027;-60
2023/03/24 05:45:00;;;;;;;10.32;6.72;;;;;;;10.97;100.00;97918.78;5097410;28;20028;-60
2023/03/24 05:47:26;;;;;;;11.02;6.40;;;;;;;11.01;100.00;97928.69;5095444;28;20031;-60
2023/03/24 05:49:51;;;;;;;10.13;5.82;;;;;;;11.12;100.00;97923.25;5094189;28;20035;-59
2023/03/24 05:52:19;;;;;;;9.82;6.32;;;;;;;11.24;100.00;97913.00;5097164;28;20032;-60
2023/03/24 05:54:45;;;;;;;11.27;6.03;;;;;;;11.27;100.00;97914.31;5099632;28;20462;-60
2023/03/24 05:57:13;;;;;;;9.88;5.53;;;;;;;11.29;100.00;97925.56;5094709;28;20372;-60
2023/03/24 05:59:38;;;;;;;12.25;7.47;;;;;;;11.31;100.00;97932.25;5096018;28;20019;-60
2023/03/24 06:02:04;;;;;;;27.25;17.45;;;;;;;11.35;100.00;97922.56;5096024;28;20043;-60
2023/03/24 06:04:29;;;;;;;7.93;5.50;;;;;;;11.33;100.00;97930.09;5097309;28;20522;-61
2023/03/24 06:07:00;;;;;;;9.98;5.88;;;;;;;11.39;100.00;97934.34;5092119;28;20032;-60
2023/03/24 06:09:27;;;;;;;11.80;7.03;;;;;;;11.41;100.00;97926.81;5099179;28;20059;-60
2023/03/24 06:11:53;;;;;;;9.90;6.30;;;;;;;11.45;100.00;97922.47;5094367;28;20035;-60
2023/03/24 06:14:19;;;;;;;11.57;5.82;;;;;;;11.45;100.00;97935.88;5091485;28;20039;-60
2023/03/24 06:16:44;;;;;;;8.13;4.88;;;;;;;11.42;100.00;97936.47;5093859;28;20471;-60
2023/03/24 06:19:10;;;;;;;12.07;5.15;;;;;;;11.51;100.00;97923.25;5092340;28;20466;-60
2023/03/24 06:21:35;;;;;;;8.60;4.70;;;;;;;11.55;100.00;97940.38;5095368;28;20028;-60
2023/03/24 06:24:02;;;;;;;13.40;7.63;;;;;;;11.58;100.00;97942.53;5099779;28;20058;-60
2023/03/24 06:26:29;;;;;;;6.93;4.50;;;;;;;11.60;100.00;97951.06;5098921;28;20028;-59
2023/03/24 06:28:55;;;;;;;9.40;5.47;;;;;;;11.51;100.00;97949.28;5089738;28;20031;-60
2023/03/24 06:31:21;;;;;;;11.15;5.93;;;;;;;11.66;100.00;97944.59;5103832;28;20016;-60
2023/03/24 06:33:47;;;;;;;11.18;7.40;;;;;;;11.67;100.00;97956.13;5091000;28;20476;-60
2023/03/24 06:36:12;;;;;;;15.10;10.68;;;;;;;11.77;100.00;97961.41;5090515;28;20032;-60
2023/03/24 06:38:39;;;;;;;15.23;9.40;;;;;;;11.80;100.00;97957.38;5092667;28;20063;-59
2023/03/24 06:41:04;;;;;;;6.97;4.70;;;;;;;11.99;100.00;97973.63;5098482;28;20500;-58
2023/03/24 06:43:30;;;;;;;12.05;7.03;;;;;;;12.18;100.00;97965.66;5099514;28;20023;-59
2023/03/24 06:45:56;;;;;;;12.45;8.27;;;;;;;12.63;98.51;97967.09;5096416;28;20019;-60
2023/03/24 06:48:21;;;;;;;10.85;7.93;;;;;;;13.75;91.72;97991.72;5097182;28;20114;-60
2023/03/24 06:50:47;;;;;;;13.38;9.60;;;;;;;13.12;92.59;97994.72;5093111;28;20015;-59
2023/03/24 06:53:12;;;;;;;8.20;4.10;;;;;;;12.56;96.04;98003.44;5090529;28;20040;-60
2023/03/24 06:55:38;;;;;;;15.32;8.80;;;;;;;12.54;95.70;98001.03;5096447;28;20511;-59
2023/03/24 06:58:03;;;;;;;11.43;5.80;;;;;;;12.33;96.86;97995.09;5090471;28;20316;-60
2023/03/24 07:00:29;;;;;;;12.57;7.70;;;;;;;12.30;97.39;97991.09;5096834;28;20373;-60
2023/03/24 07:02:55;;;;;;;14.10;11.20;;;;;;;12.28;97.63;98009.34;5091285;28;20036;-60
2023/03/24 07:05:20;;;;;;;19.38;11.38;;;;;;;12.26;98.16;98006.16;5092061;28;20024;-60
2023/03/24 07:07:46;;;;;;;6.50;3.13;;;;;;;12.42;97.67;98014.06;5093336;28;20495;-60
2023/03/24 07:10:12;;;;;;;9.18;4.85;;;;;;;12.87;94.37;98015.44;5091624;28;20133;-59
2023/03/24 07:12:38;;;;;;;8.45;4.60;;;;;;;13.00;94.24;98013.94;5097103;28;20397;-59
2023/03/24 07:15:06;;;;;;;10.27;4.65;;;;;;;12.82;95.03;98020.88;5088913;28;20039;-59
2023/03/24 07:17:31;;;;;;;12.45;6.80;;;;;;;12.62;96.56;98024.59;5094373;28;20106;-59
2023/03/24 07:19:57;;;;;;;14.95;7.55;;;;;;;12.52;97.24;98024.72;5095832;28;20369;-59
2023/03/24 07:22:22;;;;;;;21.02;14.27;;;;;;;12.54;97.89;98032.50;5098715;28;20145;-59
2023/03/24 07:24:48;;;;;;;7.90;6.07;;;;;;;12.50;99.60;98054.56;5092701;28;20031;-59
2023/03/24 07:27:13;;;;;;;9.05;3.92;;;;;;;11.66;97.87;98075.31;5097533;28;20036;-59
2023/03/24 07:29:39;;;;;;;8.60;2.70;;;;;;;10.96;100.00;98073.47;5092829;28;20122;-59
2023/03/24 07:32:06;;;;;;;9.05;2.60;;;;;;;10.58;100.00;98091.78;5092841;28;20028;-59
2023/03/24 07:34:32;;;;;;;8.82;2.53;;;;;;;10.47;100.00;98092.06;5095705;28;20213;-59
2023/03/24 07:36:58;;;;;;;10.27;3.35;;;;;;;10.15;100.00;98098.44;5098137;28;20050;-59
2023/03/24 07:39:23;;;;;;;10.38;3.28;;;;;;;9.93;100.00;98096.84;5099170;28;20046;-59
2023/03/24 07:41:49;;;;;;;8.20;2.90;;;;;;;10.11;100.00;98100.06;5094043;28;20016;-59
2023/03/24 07:44:14;;;;;;;7.22;2.30;;;;;;;10.01;100.00;98098.19;5099074;28;20039;-59
2023/03/24 07:46:40;;;;;;;7.20;2.58;;;;;;;9.97;100.00;98096.31;5098272;28;20027;-59
2023/03/24 07:49:05;;;;;;;7.63;2.60;;;;;;;9.86;99.84;98100.81;5100149;28;20035;-59
2023/03/24 07:51:31;;;;;;;8.45;2.97;;;;;;;9.96;98.82;98084.81;5104072;28;20028;-59
2023/03/24 07:53:56;;;;;;;6.50;2.25;;;;;;;10.08;99.22;98096.06;5100207;28;20028;-59
2023/03/24 07:56:22;;;;;;;6.57;3.20;;;;;;;10.21;96.87;98101.94;5099754;28;20384;-59
2023/03/24 07:58:48;;;;;;;12.20;3.00;;;;;;;10.20;96.12;98105.69;5096453;28;20031;-59
2023/03/24 08:01:13;;;;;;;13.43;5.05;;;;;;;10.22;95.55;98108.91;5100328;28;20028;-60
2023/03/24 08:03:39;;;;;;;11.32;4.55;;;;;;;10.30;95.50;98106.50;5100989;28;20038;-59
2023/03/24 08:06:06;;;;;;;14.73;5.50;;;;;;;10.28;94.72;98118.56;5095523;28;20481;-60
2023/03/24 08:08:32;;;;;;;8.15;2.90;;;;;;;10.24;93.69;98118.28;5096831;28;20100;-59
2023/03/24 08:10:57;;;;;;;9.73;2.80;;;;;;;10.12;92.71;98115.84;5099430;28;20372;-60
2023/03/24 08:13:23;;;;;;;10.85;2.80;;;;;;;10.09;91.34;98111.03;5094741;28;20036;-60
2023/03/24 08:15:48;;;;;;;11.30;2.47;;;;;;;10.02;90.31;98110.50;5097191;28;20043;-59
2023/03/24 08:18:14;;;;;;;39.90;17.92;;;;;;;10.09;88.63;98127.09;5101677;28;20691;-60
2023/03/24 08:20:40;;;;;;;14.98;4.70;;;;;;;10.07;90.29;98134.59;5099473;28;20033;-59
2023/03/24 08:23:07;;;;;;;21.75;8.52;;;;;;;10.09;90.08;98127.09;5096910;28;20638;-59
2023/03/24 08:25:32;;;;;;;13.48;4.88;;;;;;;10.13;92.06;98122.84;5094495;28;20408;-59
2023/03/24 08:27:58;;;;;;;16.45;5.88;;;;;;;10.05;92.83;98122.53;5097362;28;20046;-59
2023/03/24 08:30:24;;;;;;;12.32;4.93;;;;;;;10.17;92.76;98128.44;5098927;28;20023;-59
2023/03/24 08:32:51;;;;;;;20.20;5.43;;;;;;;10.18;92.93;98129.25;5096076;28;20482;-59
2023/03/24 08:35:20;;;;;;;15.80;4.85;;;;;;;10.24;92.54;98128.19;5097430;28;20042;-59
2023/03/24 08:37:46;;;;;;;15.40;6.07;;;;;;;10.29;93.16;98130.91;5093600;28;20035;-61
2023/03/24 08:40:13;;;;;;;15.18;4.30;;;;;;;10.46;91.35;98139.47;5099068;27;20131;-60
2023/03/24 08:42:42;;;;;;;8.05;2.10;;;;;;;10.65;89.81;98138.94;5099499;28;20420;-59
2023/03/24 08:45:09;;;;;;;15.20;4.28;;;;;;;10.79;90.50;98137.31;5095016;28;20481;-59
2023/03/24 08:47:34;;;;;;;19.25;5.68;;;;;;;10.72;90.24;98144.81;5099896;28;20028;-60
2023/03/24 08:50:00;;;;;;;9.75;2.35;;;;;;;10.68;89.35;98143.75;5095378;28;20028;-60
2023/03/24 08:52:25;;;;;;;8.60;2.25;;;;;;;10.82;89.46;98155.53;5101947;28;20374;-59
2023/03/24 08:54:51;;;;;;;12.98;2.53;;;;;;;10.91;88.64;98145.88;5090473;28;20470;-59
2023/03/24 08:57:16;;;;;;;10.65;2.25;;;;;;;11.02;88.97;98141.28;5095307;28;20040;-59
2023/03/24 08:59:42;;;;;;;6.15;1.70;;;;;;;10.93;89.88;98150.94;5087756;28;20034;-59
2023/03/24 09:02:10;;;;;;;11.88;2.22;;;;;;;10.75;88.18;98163.84;5097622;28;20123;-59
2023/03/24 09:04:36;;;;;;;12.68;2.58;;;;;;;10.71;87.48;98176.19;5099067;28;20080;-59
2023/03/24 09:07:02;;;;;;;8.60;2.40;;;;;;;10.74;88.81;98164.13;5096341;28;20074;-59
2023/03/24 09:09:28;;;;;;;17.58;2.53;;;;;;;10.79;86.83;98162.22;5099239;28;20050;-59
2023/03/24 09:11:53;;;;;;;7.75;2.13;;;;;;;10.78;86.84;98160.63;5099687;28;20020;-59
2023/03/24 09:14:21;;;;;;;13.65;2.58;;;;;;;10.89;87.42;98160.63;5098461;28;20088;-61
2023/03/24 09:16:47;;;;;;;15.13;3.25;;;;;;;11.09;86.84;98159.78;5095503;28;20020;-60
2023/03/24 09:19:12;;;;;;;16.42;2.60;;;;;;;11.22;85.56;98151.94;5097622;28;20043;-60
2023/03/24 09:21:40;;;;;;;12.38;2.15;;;;;;;11.05;85.03;98158.72;5096033;28;20046;-59
2023/03/24 09:24:06;;;;;;;10.55;2.30;;;;;;;11.10;84.04;98161.38;5096137;28;20031;-59
2023/03/24 09:26:32;;;;;;;10.70;2.67;;;;;;;11.05;83.48;98180.16;5094217;28;20020;-59
2023/03/24 09:28:58;;;;;;;7.32;2.50;;;;;;;11.25;83.79;98180.09;5097467;28;20036;-59
2023/03/24 09:31:24;;;;;;;10.52;2.35;;;;;;;11.25;83.86;98177.44;5096248;28;20081;-59
2023/03/24 09:33:50;;;;;;;9.85;2.65;;;;;;;11.31;82.55;98179.03;5098919;28;20031;-59
2023/03/24 09:36:15;;;;;;;11.50;2.25;;;;;;;11.28;83.38;98187.59;5097375;28;21528;-60
2023/03/24 09:38:41;;;;;;;10.23;2.63;;;;;;;11.22;82.85;98192.19;5093708;28;20030;-60
2023/03/24 09:41:15;;;;;;;8.63;2.25;;;;;;;11.34;83.23;98208.00;5097049;28;20123;-60
2023/03/24 09:43:43;;;;;;;7.60;2.10;;;;;;;11.35;82.48;98206.91;5074787;28;20032;-60
2023/03/24 09:46:11;;;;;;;12.75;2.33;;;;;;;11.37;81.39;98198.59;5089192;28;20035;-59
2023/03/24 09:48:49;;;;;;;10.73;2.45;;;;;;;11.43;80.37;98203.69;5096863;28;20058;-59
2023/03/24 09:51:17;;;;;;;8.05;1.83;;;;;;;11.67;78.50;98205.75;5089689;28;20028;-60
2023/03/24 09:53:50;;;;;;;11.13;2.20;;;;;;;11.83;78.92;98218.03;5091802;28;20036;-59
2023/03/24 09:56:17;;;;;;;13.10;2.13;;;;;;;12.16;77.04;98225.72;5094997;28;20103;-59
2023/03/24 09:58:44;;;;;;;9.07;2.28;;;;;;;12.30;76.12;98222.13;5098965;28;20081;-59
2023/03/24 10:01:12;;;;;;;6.93;1.75;;;;;;;12.77;74.63;98229.88;5099550;28;20028;-60
2023/03/24 10:03:38;;;;;;;8.55;2.88;;;;;;;12.67;74.16;98223.47;5087091;28;20016;-59
2023/03/24 10:06:10;;;;;;;13.15;2.33;;;;;;;12.37;75.38;98223.69;5088636;28;20039;-60
2023/03/24 10:09:32;;;;;;;7.85;1.80;;;;;;;12.62;74.11;98225.41;5090189;28;20030;-59
2023/03/24 10:12:32;;;;;;;9.68;1.80;;;;;;;13.14;73.46;98211.25;5069862;28;20805;-59
2023/03/24 10:15:06;;;;;;;8.07;2.65;;;;;;;13.29;72.63;98214.91;5074187;28;20525;-59
2023/03/24 10:17:46;;;;;;;9.98;2.17;;;;;;;12.98;71.76;98215.19;5093093;28;20046;-60
2023/03/24 10:20:30;;;;;;;;;;;;;;;12.80;73.56;98210.47;5097847;28;20492;-59
2023/03/24 10:23:14;;;;;;;14.10;4.30;;;;;;;12.85;74.13;98213.91;5100292;27;19920;-59
2023/03/24 10:25:59;;;;;;;10.27;2.25;;;;;;;13.66;71.07;98208.06;5091906;28;20074;-59
2023/03/24 10:28:43;;;;;;;6.28;2.50;;;;;;;14.44;68.24;98212.94;5092607;28;20096;-59
2023/03/24 10:31:13;;;;;;;10.35;2.58;;;;;;;15.16;64.09;98205.63;5092231;28;20039;-60
2023/03/24 10:33:43;;;;;;;6.78;2.85;;;;;;;15.86;61.34;98197.25;5095008;28;20993;-60
2023/03/24 10:36:17;;;;;;;9.13;2.40;;;;;;;15.58;60.75;98196.47;5089056;28;20133;-60
2023/03/24 10:38:42;;;;;;;6.35;1.90;;;;;;;15.22;59.85;98194.41;5095492;28;20081;-60
2023/03/24 10:41:15;;;;;;;7.85;2.45;;;;;;;16.79;57.90;98201.44;5100409;27;20448;-60
2023/03/24 10:43:41;;;;;;;5.70;1.80;;;;;;;16.41;56.76;98215.28;5084813;28;20047;-60
2023/03/24 10:46:07;;;;;;;6.30;1.80;;;;;;;16.13;56.88;98223.44;5089681;28;20057;-58
2023/03/24 10:48:34;;;;;;;8.38;1.92;;;;;;;16.51;56.82;98222.38;5086290;28;20526;-58
2023/03/24 10:50:59;;;;;;;6.45;1.58;;;;;;;16.57;55.08;98224.66;5097106;28;20028;-58
2023/03/24 10:53:25;;;;;;;9.68;2.03;;;;;;;16.39;56.07;98236.41;5096689;28;20102;-61
2023/03/24 10:55:50;;;;;;;7.35;1.90;;;;;;;17.19;53.97;98225.88;5096821;28;20320;-61
2023/03/24 10:58:36;;;;;;;3.63;1.65;;;;;;;17.23;52.95;98230.38;5099894;28;20293;-60
2023/03/24 11:01:02;;;;;;;5.65;1.77;;;;;;;16.15;54.12;98236.69;5090100;28;20999;-59
2023/03/24 11:03:29;;;;;;;7.72;1.90;;;;;;;17.34;51.65;98239.00;5097195;28;20027;-58
2023/03/24 11:06:00;;;;;;;6.07;2.20;;;;;;;17.33;52.38;98242.06;5093632;28;20188;-60
2023/03/24 11:08:34;;;;;;;5.90;1.92;;;;;;;16.81;52.71;98243.31;5102154;28;20536;-60
2023/03/24 11:11:00;;;;;;;9.75;1.90;;;;;;;15.88;53.43;98248.31;5097112;28;20034;-60
2023/03/24 11:13:31;;;;;;;5.82;1.80;;;;;;;15.95;52.79;98238.69;5093262;28;20044;-60
2023/03/24 11:16:04;;;;;;;7.45;1.80;;;;;;;15.92;52.86;98236.56;5099655;28;20051;-60
2023/03/24 11:18:30;;;;;;;8.57;2.55;;;;;;;15.53;54.37;98240.56;5100322;28;20034;-60
2023/03/24 11:21:05;;;;;;;8.70;2.10;;;;;;;16.06;52.32;98244.69;5095951;28;20028;-61
2023/03/24 11:23:31;;;;;;;5.00;1.70;;;;;;;16.27;51.22;98236.13;5090503;28;20027;-58
2023/03/24 11:26:12;;;;;;;7.60;1.92;;;;;;;16.64;51.43;98231.53;5089556;28;20172;-58
2023/03/24 11:28:45;;;;;;;5.35;1.77;;;;;;;16.42;52.54;98226.88;5085373;28;20030;-58
2023/03/24 11:31:17;;;;;;;6.40;1.80;;;;;;;15.94;53.74;98220.06;5094566;28;20085;-58